createdAt,value
2023-09-20T00:01:56.760Z,100253.25
2023-09-20T00:04:24.943Z,100247.81
2023-09-20T00:06:53.979Z,100250.00
2023-09-20T00:09:21.755Z,100246.12
2023-09-20T00:11:49.820Z,100241.63
2023-09-20T00:14:18.129Z,100243.94
2023-09-20T00:16:46.325Z,100250.37
2023-09-20T00:19:14.695Z,100254.66
2023-09-20T00:21:42.497Z,100252.25
2023-09-20T00:24:10.474Z,100251.06
2023-09-20T00:26:38.611Z,100253.44
2023-09-20T00:29:07.026Z,100257.87
2023-09-20T00:31:35.174Z,100252.50
2023-09-20T00:34:04.861Z,100251.53
2023-09-20T00:36:33.557Z,100253.56
2023-09-20T00:39:02.211Z,100260.25
2023-09-20T00:41:33.162Z,100258.41
2023-09-20T00:44:01.507Z,100255.13
2023-09-20T00:46:29.493Z,100249.63
2023-09-20T00:48:57.849Z,100249.19
2023-09-20T00:51:25.806Z,100249.06
2023-09-20T00:53:54.406Z,100255.28
2023-09-20T00:56:22.559Z,100255.03
2023-09-20T00:58:54.069Z,100254.72
2023-09-20T01:01:22.837Z,100258.38
2023-09-20T01:03:52.301Z,100255.34
2023-09-20T01:06:22.347Z,100259.28
2023-09-20T01:08:50.525Z,100251.28
2023-09-20T01:11:18.573Z,100242.91
2023-09-20T01:13:46.448Z,100248.84
2023-09-20T01:16:16.526Z,100241.50
2023-09-20T01:18:48.031Z,100243.16
2023-09-20T01:21:16.183Z,100249.44
2023-09-20T01:23:44.571Z,100246.06
2023-09-20T01:26:13.256Z,100245.69
2023-09-20T01:28:41.775Z,100244.91
2023-09-20T01:31:09.890Z,100246.28
2023-09-20T01:33:39.920Z,100247.63
2023-09-20T01:36:07.889Z,100246.63
2023-09-20T01:38:38.600Z,100244.94
2023-09-20T01:41:05.961Z,100247.31
2023-09-20T01:43:35.010Z,100248.31
2023-09-20T01:46:04.579Z,100254.09
2023-09-20T01:48:34.850Z,100258.25
2023-09-20T01:51:04.820Z,100245.53
2023-09-20T01:53:33.954Z,100251.03
2023-09-20T01:56:01.721Z,100255.81
2023-09-20T01:58:29.510Z,100246.91
2023-09-20T02:00:59.920Z,100246.06
2023-09-20T02:03:32.826Z,100252.22
2023-09-20T02:06:00.296Z,100252.91
2023-09-20T02:08:27.891Z,100246.59
2023-09-20T02:10:56.071Z,100246.75
2023-09-20T02:13:23.478Z,100248.94
2023-09-20T02:15:53.644Z,100249.63
2023-09-20T02:18:23.495Z,100247.25
2023-09-20T02:20:51.036Z,100246.19
2023-09-20T02:23:18.502Z,100252.97
2023-09-20T02:25:46.857Z,100249.88
2023-09-20T02:28:14.415Z,100253.75
2023-09-20T02:30:43.344Z,100252.81
2023-09-20T02:33:16.294Z,100257.78
2023-09-20T02:35:46.519Z,100252.69
2023-09-20T02:38:14.667Z,100253.59
2023-09-20T02:40:42.011Z,100254.75
2023-09-20T02:43:10.918Z,100252.47
2023-09-20T02:45:41.053Z,100255.91
2023-09-20T02:48:10.073Z,100256.88
2023-09-20T02:50:42.759Z,100255.31
2023-09-20T02:53:11.084Z,100256.28
2023-09-20T02:55:40.422Z,100264.59
2023-09-20T02:58:08.610Z,100263.78
2023-09-20T03:00:39.693Z,100262.84
2023-09-20T03:03:09.044Z,100260.87
2023-09-20T03:05:39.398Z,100259.47
2023-09-20T03:08:14.546Z,100257.53
2023-09-20T03:10:43.056Z,100261.41
2023-09-20T03:13:21.034Z,100255.81
2023-09-20T03:15:50.322Z,100265.25
2023-09-20T03:18:18.222Z,100269.69
2023-09-20T03:20:49.773Z,100266.47
2023-09-20T03:23:18.338Z,100266.81
2023-09-20T03:25:46.500Z,100262.69
2023-09-20T03:28:16.176Z,100269.09
2023-09-20T03:30:43.840Z,100263.69
2023-09-20T03:33:12.632Z,100266.44
2023-09-20T03:35:40.589Z,100265.78
2023-09-20T03:38:10.329Z,100269.59
2023-09-20T03:40:38.763Z,100260.34
2023-09-20T03:43:08.690Z,100262.41
2023-09-20T03:45:37.685Z,100256.81
2023-09-20T03:48:05.206Z,100260.78
2023-09-20T03:50:32.662Z,100255.50
2023-09-20T03:53:01.633Z,100253.59
2023-09-20T03:55:29.357Z,100251.34
2023-09-20T03:57:57.366Z,100255.22
2023-09-20T04:00:30.162Z,100256.91
2023-09-20T04:03:00.383Z,100252.44
2023-09-20T04:05:43.977Z,100243.75
2023-09-20T04:08:18.237Z,100246.56
2023-09-20T04:10:47.063Z,100261.06
2023-09-20T04:13:16.299Z,100257.44
2023-09-20T04:15:44.170Z,100255.09
2023-09-20T04:18:13.181Z,100255.91
2023-09-20T04:20:41.455Z,100254.37
2023-09-20T04:23:11.157Z,100252.31
2023-09-20T04:25:40.112Z,100261.84
2023-09-20T04:28:08.006Z,100268.47
2023-09-20T04:30:37.899Z,100267.78
2023-09-20T04:33:08.272Z,100264.28
2023-09-20T04:35:38.495Z,100271.37
2023-09-20T04:38:06.299Z,100267.53
2023-09-20T04:40:35.168Z,100273.53
2023-09-20T04:43:04.162Z,100280.34
2023-09-20T04:45:31.890Z,100285.22
2023-09-20T04:47:59.780Z,100289.16
2023-09-20T04:50:27.408Z,100289.38
2023-09-20T04:52:55.827Z,100284.00
2023-09-20T04:55:23.252Z,100293.56
2023-09-20T04:57:51.466Z,100290.50
2023-09-20T05:00:22.075Z,100295.44
2023-09-20T05:02:50.042Z,100297.84
2023-09-20T05:05:17.973Z,100300.06
2023-09-20T05:07:46.163Z,100295.25
2023-09-20T05:10:15.322Z,100306.50
2023-09-20T05:12:43.298Z,100309.53
2023-09-20T05:15:14.383Z,100307.97
2023-09-20T05:17:44.704Z,100315.19
2023-09-20T05:20:14.899Z,100324.16
2023-09-20T05:22:42.950Z,100321.56
2023-09-20T05:25:11.097Z,100323.28
2023-09-20T05:27:39.016Z,100326.59
2023-09-20T05:30:06.740Z,100325.78
2023-09-20T05:32:37.358Z,100334.94
2023-09-20T05:35:05.330Z,100334.25
2023-09-20T05:37:32.687Z,100333.44
2023-09-20T05:40:01.139Z,100339.97
2023-09-20T05:42:29.581Z,100341.63
2023-09-20T05:44:59.860Z,100345.09
2023-09-20T05:47:27.226Z,100357.06
2023-09-20T05:49:54.967Z,100352.06
2023-09-20T05:52:23.099Z,100363.59
2023-09-20T05:54:50.996Z,100358.91
2023-09-20T05:57:20.466Z,100354.09
2023-09-20T05:59:47.821Z,100361.81
2023-09-20T06:02:15.202Z,100362.87
2023-09-20T06:04:43.145Z,100364.41
2023-09-20T06:07:12.290Z,100367.16
2023-09-20T06:09:40.705Z,100370.94
2023-09-20T06:12:09.317Z,100363.09
2023-09-20T06:14:36.629Z,100364.41
2023-09-20T06:17:06.069Z,100365.75
2023-09-20T06:19:34.131Z,100362.28
2023-09-20T06:22:02.345Z,100373.06
2023-09-20T06:24:29.669Z,100375.31
2023-09-20T06:26:59.991Z,100385.84
2023-09-20T06:29:28.308Z,100376.03
2023-09-20T06:31:55.792Z,100377.16
2023-09-20T06:34:25.733Z,100380.66
2023-09-20T06:36:54.040Z,100386.75
2023-09-20T06:39:21.636Z,100389.09
2023-09-20T06:41:50.371Z,100397.63
2023-09-20T06:44:17.859Z,100393.19
2023-09-20T06:46:45.236Z,100391.84
2023-09-20T06:49:13.281Z,100397.97
2023-09-20T06:51:43.853Z,100398.25
2023-09-20T06:54:13.529Z,100396.69
2023-09-20T06:56:42.456Z,100396.97
2023-09-20T06:59:12.437Z,100393.56
2023-09-20T07:01:41.579Z,100399.78
2023-09-20T07:04:10.918Z,100400.47
2023-09-20T07:06:38.634Z,100409.75
2023-09-20T07:09:06.597Z,100422.69
2023-09-20T07:11:35.925Z,100426.41
2023-09-20T07:14:07.179Z,100426.59
2023-09-20T07:16:37.560Z,100430.16
2023-09-20T07:19:07.261Z,100429.50
2023-09-20T07:21:38.443Z,100432.16
2023-09-20T07:24:13.854Z,100435.97
2023-09-20T07:26:44.717Z,100429.50
2023-09-20T07:29:14.350Z,100437.28
2023-09-20T07:31:43.267Z,100436.16
2023-09-20T07:34:19.175Z,100447.66
2023-09-20T07:36:51.558Z,100441.88
2023-09-20T07:39:22.225Z,100431.62
2023-09-20T07:41:54.073Z,100437.06
2023-09-20T07:44:32.293Z,100433.97
2023-09-20T07:47:00.337Z,100428.53
2023-09-20T07:49:28.663Z,100433.78
2023-09-20T07:51:57.258Z,100426.00
2023-09-20T07:54:25.463Z,100434.50
2023-09-20T07:56:53.940Z,100426.31
2023-09-20T07:59:27.253Z,100426.75
2023-09-20T08:01:56.174Z,100427.75
2023-09-20T08:04:26.357Z,100431.50
2023-09-20T08:06:56.178Z,100428.81
2023-09-20T08:09:24.436Z,100425.91
2023-09-20T08:11:52.351Z,100431.56
2023-09-20T08:14:19.745Z,100424.81
2023-09-20T08:17:05.983Z,100426.34
2023-09-20T08:19:33.821Z,100434.28
2023-09-20T08:22:04.924Z,100432.53
2023-09-20T08:24:51.631Z,100428.31
2023-09-20T08:27:38.051Z,100428.50
2023-09-20T08:30:24.240Z,100418.16
2023-09-20T08:33:10.699Z,100418.34
2023-09-20T08:35:56.904Z,100411.44
2023-09-20T08:38:45.713Z,100418.88
2023-09-20T08:41:33.965Z,100411.38
2023-09-20T08:44:25.842Z,100414.31
2023-09-20T08:47:11.674Z,100415.44
2023-09-20T08:49:59.531Z,100411.97
2023-09-20T08:52:46.672Z,100413.91
2023-09-20T08:55:33.169Z,100405.59
2023-09-20T08:58:19.365Z,100413.84
2023-09-20T09:00:48.117Z,100400.31
2023-09-20T09:03:16.253Z,100412.09
2023-09-20T09:05:48.816Z,100405.50
2023-09-20T09:08:18.753Z,100405.34
2023-09-20T09:10:49.058Z,100401.56
2023-09-20T09:16:40.331Z,100394.94
2023-09-20T09:29:18.867Z,100385.72
2023-09-20T09:31:50.744Z,100383.06
2023-09-20T09:34:20.560Z,100377.53
2023-09-20T09:36:48.776Z,100374.81
2023-09-20T09:39:32.195Z,100365.81
2023-09-20T09:42:02.508Z,100374.09
2023-09-20T09:44:43.725Z,100367.81
2023-09-20T09:47:13.390Z,100372.06
2023-09-20T09:49:43.327Z,100354.16
2023-09-20T09:52:13.460Z,100348.19
2023-09-20T09:54:41.273Z,100344.88
2023-09-20T09:57:09.496Z,100345.78
2023-09-20T09:59:37.820Z,100345.16
2023-09-20T10:02:05.812Z,100335.25
2023-09-20T10:04:37.492Z,100332.97
2023-09-20T10:10:29.980Z,100332.37
2023-09-20T10:16:21.782Z,100326.31
2023-09-20T10:18:56.824Z,100324.47
2023-09-20T10:21:28.351Z,100327.00
2023-09-20T10:24:00.829Z,100323.41
2023-09-20T10:26:29.010Z,100319.00
2023-09-20T10:29:19.909Z,100321.41
2023-09-20T10:41:20.025Z,100312.25
2023-09-20T10:43:50.087Z,100323.72
2023-09-20T10:46:18.933Z,100317.41
2023-09-20T10:48:50.556Z,100312.53
2023-09-20T10:51:37.278Z,100308.88
2023-09-20T10:54:23.935Z,100295.75
2023-09-20T10:56:53.734Z,100296.56
2023-09-20T10:59:26.217Z,100288.00
2023-09-20T11:01:56.309Z,100285.16
2023-09-20T11:07:48.171Z,100283.63
2023-09-20T11:13:43.159Z,100284.56
2023-09-20T11:16:11.275Z,100268.16
2023-09-20T11:18:40.100Z,100267.69
2023-09-20T11:21:08.917Z,100267.91
2023-09-20T11:23:37.905Z,100254.22
2023-09-20T11:26:07.922Z,100257.19
2023-09-20T11:28:36.377Z,100264.16
2023-09-20T11:34:43.201Z,100262.50
2023-09-20T11:37:12.459Z,100267.59
2023-09-20T11:39:48.312Z,100259.41
2023-09-20T11:42:33.324Z,100256.88
2023-09-20T11:45:27.108Z,100253.09
2023-09-20T11:47:53.350Z,100252.34
2023-09-20T11:50:22.867Z,100255.44
2023-09-20T11:52:50.977Z,100246.22
2023-09-20T11:55:21.592Z,100243.06
2023-09-20T11:57:49.793Z,100238.09
2023-09-20T12:00:18.293Z,100245.94
2023-09-20T12:02:47.361Z,100238.88
2023-09-20T12:05:15.456Z,100240.81
2023-09-20T12:07:53.120Z,100230.16
2023-09-20T12:10:21.458Z,100227.78
2023-09-20T12:12:52.832Z,100232.09
2023-09-20T12:15:25.148Z,100229.38
2023-09-20T12:17:56.616Z,100228.16
2023-09-20T12:20:29.596Z,100224.91
2023-09-20T12:23:03.720Z,100220.25
2023-09-20T12:25:32.575Z,100213.56
2023-09-20T12:28:00.847Z,100214.66
2023-09-20T12:30:29.723Z,100212.72
2023-09-20T12:32:59.223Z,100206.56
2023-09-20T12:35:29.995Z,100205.94
2023-09-20T12:37:58.152Z,100199.94
2023-09-20T12:40:26.911Z,100198.84
2023-09-20T12:42:55.185Z,100191.81
2023-09-20T12:45:25.786Z,100191.81
2023-09-20T12:47:54.317Z,100186.75
2023-09-20T12:50:23.213Z,100190.06
2023-09-20T12:52:50.776Z,100183.44
2023-09-20T12:55:18.875Z,100182.16
2023-09-20T12:57:48.613Z,100176.81
2023-09-20T13:00:26.934Z,100175.87
2023-09-20T13:06:27.823Z,100163.75
2023-09-20T13:09:15.291Z,100162.31
2023-09-20T13:11:47.720Z,100161.47
2023-09-20T13:14:20.897Z,100151.91
2023-09-20T13:16:54.360Z,100144.84
2023-09-20T13:19:22.580Z,100147.31
2023-09-20T13:21:51.108Z,100146.03
2023-09-20T13:24:18.997Z,100139.22
2023-09-20T13:26:50.881Z,100135.81
2023-09-20T13:29:18.865Z,100132.37
2023-09-20T13:31:47.429Z,100129.72
2023-09-20T13:34:17.432Z,100125.47
2023-09-20T13:36:48.898Z,100124.84
2023-09-20T13:39:20.070Z,100125.88
2023-09-20T13:41:50.310Z,100123.97
2023-09-20T13:44:20.791Z,100125.25
2023-09-20T13:46:48.749Z,100119.25
2023-09-20T13:49:17.441Z,100122.41
2023-09-20T13:51:46.840Z,100127.63
2023-09-20T13:54:14.705Z,100114.25
2023-09-20T13:56:45.378Z,100114.94
2023-09-20T13:59:13.566Z,100113.91
2023-09-20T14:01:42.025Z,100103.47
2023-09-20T14:04:11.072Z,100107.56
2023-09-20T14:06:39.415Z,100104.19
2023-09-20T14:09:09.722Z,100099.25
2023-09-20T14:11:37.946Z,100102.78
2023-09-20T14:14:06.290Z,100096.75
2023-09-20T14:16:35.994Z,100104.00
2023-09-20T14:19:05.565Z,100098.34
2023-09-20T14:21:35.524Z,100099.16
2023-09-20T14:24:04.920Z,100094.78
2023-09-20T14:26:39.928Z,100094.34
2023-09-20T14:29:11.370Z,100096.22
2023-09-20T14:31:39.584Z,100095.78
2023-09-20T14:34:09.985Z,100096.12
2023-09-20T14:36:43.268Z,100088.50
2023-09-20T14:42:10.614Z,100095.31
2023-09-20T14:44:39.147Z,100082.81
2023-09-20T14:47:06.960Z,100072.81
2023-09-20T14:49:34.778Z,100080.19
2023-09-20T14:52:03.295Z,100081.37
2023-09-20T14:54:33.316Z,100075.94
2023-09-20T14:57:03.539Z,100072.06
2023-09-20T14:59:31.692Z,100069.50
2023-09-20T15:02:00.281Z,100078.59
2023-09-20T15:04:32.758Z,100078.47
2023-09-20T15:07:01.110Z,100079.31
2023-09-20T15:09:33.152Z,100073.03
2023-09-20T15:12:01.278Z,100075.06
2023-09-20T15:14:30.436Z,100065.66
2023-09-20T15:16:58.519Z,100068.13
2023-09-20T15:19:33.056Z,100069.53
2023-09-20T15:22:01.013Z,100054.91
2023-09-20T15:24:29.178Z,100058.22
2023-09-20T15:26:59.044Z,100059.28
2023-09-20T15:29:26.924Z,100054.72
2023-09-20T15:31:55.109Z,100053.78
2023-09-20T15:34:23.550Z,100049.63
2023-09-20T15:36:51.425Z,100048.94
2023-09-20T15:39:19.538Z,100048.25
2023-09-20T15:41:47.467Z,100050.81
2023-09-20T15:44:16.671Z,100050.81
2023-09-20T15:46:46.287Z,100052.47
2023-09-20T15:49:14.212Z,100043.53
2023-09-20T15:51:44.863Z,100050.50
2023-09-20T15:54:14.450Z,100046.66
2023-09-20T15:56:42.797Z,100053.41
2023-09-20T16:02:34.122Z,100037.81
2023-09-20T16:08:38.684Z,100042.50
2023-09-20T16:11:12.319Z,100037.19
2023-09-20T16:13:42.970Z,100033.37
2023-09-20T16:16:16.708Z,100039.06
2023-09-20T16:18:48.355Z,100030.31
2023-09-20T16:21:17.818Z,100025.94
2023-09-20T16:23:49.762Z,100028.13
2023-09-20T16:26:30.534Z,100027.69
2023-09-20T16:29:03.619Z,100026.84
2023-09-20T16:31:36.226Z,100016.28
2023-09-20T16:34:05.304Z,100018.06
2023-09-20T16:36:39.589Z,100025.25
2023-09-20T16:39:08.682Z,100017.75
2023-09-20T16:41:41.488Z,100025.50
2023-09-20T16:44:10.157Z,100022.63
2023-09-20T16:46:39.844Z,100015.62
2023-09-20T16:49:09.445Z,100007.47
2023-09-20T16:51:39.099Z,100011.31
2023-09-20T16:54:10.676Z,100008.09
2023-09-20T16:56:39.598Z,100010.28
2023-09-20T16:59:10.072Z,100024.84
2023-09-20T17:01:38.997Z,100011.66
2023-09-20T17:04:14.093Z,100014.56
2023-09-20T17:06:42.234Z,100007.97
2023-09-20T17:12:11.156Z,100010.72
2023-09-20T17:14:40.424Z,100020.25
2023-09-20T17:17:11.148Z,100021.09
2023-09-20T17:19:40.477Z,100019.66
2023-09-20T17:22:12.111Z,100027.50
2023-09-20T17:24:41.958Z,100030.81
2023-09-20T17:30:36.330Z,100023.03
2023-09-20T17:33:04.474Z,100030.69
2023-09-20T17:35:32.906Z,100028.00
2023-09-20T17:38:00.940Z,100026.38
2023-09-20T17:40:30.806Z,100023.03
2023-09-20T17:43:00.072Z,100027.59
2023-09-20T17:45:43.153Z,100029.66
2023-09-20T17:51:33.664Z,100035.41
2023-09-20T17:54:02.621Z,100039.94
2023-09-20T17:56:38.631Z,100042.56
2023-09-20T17:59:08.187Z,100039.88
2023-09-20T18:01:37.692Z,100050.22
2023-09-20T18:04:10.482Z,100052.25
2023-09-20T18:06:39.756Z,100043.13
2023-09-20T18:09:15.175Z,100057.19
2023-09-20T18:11:50.924Z,100050.28
2023-09-20T18:14:20.806Z,100053.41
2023-09-20T18:16:49.330Z,100058.13
2023-09-20T18:22:59.697Z,100044.56
2023-09-20T18:31:45.143Z,100051.16
2023-09-20T18:34:15.602Z,100058.53
2023-09-20T18:36:44.753Z,100061.44
2023-09-20T18:39:14.872Z,100057.94
2023-09-20T18:41:45.557Z,100060.81
2023-09-20T18:44:16.446Z,100053.09
2023-09-20T18:46:47.447Z,100062.19
2023-09-20T18:49:18.854Z,100051.41
2023-09-20T18:51:47.587Z,100051.38
2023-09-20T18:54:18.512Z,100056.06
2023-09-20T18:56:48.399Z,100054.41
2023-09-20T18:59:30.296Z,100060.53
2023-09-20T19:02:02.638Z,100064.25
2023-09-20T19:04:54.156Z,100059.09
2023-09-20T19:14:03.638Z,100066.50
2023-09-20T19:16:33.601Z,100056.25
2023-09-20T19:19:03.118Z,100058.41
2023-09-20T19:21:40.676Z,100062.97
2023-09-20T19:24:11.168Z,100058.41
2023-09-20T19:27:00.053Z,100056.88
2023-09-20T19:29:30.778Z,100063.06
2023-09-20T19:32:00.306Z,100054.78
2023-09-20T19:34:28.910Z,100058.03
2023-09-20T19:36:59.202Z,100054.66
2023-09-20T19:39:30.888Z,100063.31
2023-09-20T19:42:02.087Z,100063.16
2023-09-20T19:44:32.900Z,100067.75
2023-09-20T19:47:01.901Z,100059.50
2023-09-20T19:49:33.191Z,100057.28
2023-09-20T19:52:02.629Z,100054.72
2023-09-20T19:54:32.172Z,100064.63
2023-09-20T19:57:00.785Z,100050.25
2023-09-20T19:59:32.423Z,100045.28
2023-09-20T20:02:02.835Z,100053.72
2023-09-20T20:04:32.245Z,100048.84
2023-09-20T20:07:13.894Z,100055.25
2023-09-20T20:09:52.833Z,100056.56
2023-09-20T20:12:21.184Z,100052.16
2023-09-20T20:14:50.325Z,100045.97
2023-09-20T20:17:21.245Z,100049.81
2023-09-20T20:19:57.253Z,100050.84
2023-09-20T20:22:26.281Z,100048.16
2023-09-20T20:24:56.411Z,100039.78
2023-09-20T20:27:24.612Z,100048.25
2023-09-20T20:29:54.149Z,100045.59
2023-09-20T20:32:22.811Z,100035.25
2023-09-20T20:34:51.915Z,100038.34
2023-09-20T20:37:21.172Z,100042.41
2023-09-20T20:39:50.767Z,100045.47
2023-09-20T20:42:22.642Z,100046.12
2023-09-20T20:44:50.993Z,100035.97
2023-09-20T20:47:19.133Z,100048.00
2023-09-20T20:49:47.218Z,100044.03
2023-09-20T20:52:16.407Z,100047.75
2023-09-20T20:54:44.890Z,100045.62
2023-09-20T20:57:16.871Z,100038.44
2023-09-20T20:59:46.146Z,100040.03
2023-09-20T21:02:14.406Z,100035.31
2023-09-20T21:04:43.420Z,100040.03
2023-09-20T21:07:13.738Z,100036.53
2023-09-20T21:09:41.717Z,100027.56
2023-09-20T21:12:11.429Z,100027.94
2023-09-20T21:14:40.298Z,100033.50
2023-09-20T21:17:08.133Z,100025.62
2023-09-20T21:19:35.903Z,100033.19
2023-09-20T21:22:05.192Z,100026.28
2023-09-20T21:24:33.059Z,100024.72
2023-09-20T21:27:01.246Z,100025.41
2023-09-20T21:29:30.862Z,100024.03
2023-09-20T21:31:58.761Z,100019.69
2023-09-20T21:34:26.617Z,100020.44
2023-09-20T21:36:54.708Z,100022.31
2023-09-20T21:39:22.842Z,100021.13
2023-09-20T21:41:50.677Z,100017.63
2023-09-20T21:44:20.207Z,100018.91
2023-09-20T21:46:48.040Z,100022.22
2023-09-20T21:49:16.719Z,100016.22
2023-09-20T21:51:44.768Z,100006.41
2023-09-20T21:54:12.629Z,100011.72
2023-09-20T21:56:40.721Z,100014.41
2023-09-20T21:59:08.885Z,100011.66
2023-09-20T22:01:36.648Z,100007.56
2023-09-20T22:04:05.958Z,100009.41
2023-09-20T22:06:34.478Z,100014.03
2023-09-20T22:09:02.338Z,100004.44
2023-09-20T22:11:31.468Z,100010.88
2023-09-20T22:14:02.093Z,100004.62
2023-09-20T22:16:35.975Z,100007.09
2023-09-20T22:19:03.850Z,100003.78
2023-09-20T22:21:32.014Z,100006.81
2023-09-20T22:24:00.073Z,100001.66
2023-09-20T22:26:27.453Z,100007.13
2023-09-20T22:28:56.333Z,100006.53
2023-09-20T22:31:25.873Z,99997.72
2023-09-20T22:33:53.617Z,99999.41
2023-09-20T22:36:21.334Z,99998.78
2023-09-20T22:38:50.491Z,99997.75
2023-09-20T22:41:18.035Z,99989.75
2023-09-20T22:43:46.455Z,99995.06
2023-09-20T22:46:16.188Z,99997.41
2023-09-20T22:48:45.093Z,99996.47
2023-09-20T22:51:13.281Z,99990.94
2023-09-20T22:53:40.732Z,100001.38
2023-09-20T22:56:08.276Z,99998.69
2023-09-20T22:58:35.920Z,99987.44
2023-09-20T23:01:06.599Z,99995.25
2023-09-20T23:03:35.634Z,99993.34
2023-09-20T23:06:04.678Z,99991.13
2023-09-20T23:08:34.080Z,99988.50
2023-09-20T23:11:02.735Z,99993.59
2023-09-20T23:13:35.701Z,99996.38
2023-09-20T23:16:08.825Z,99991.41
2023-09-20T23:18:36.731Z,100003.47
2023-09-20T23:21:05.721Z,99989.47
2023-09-20T23:23:34.166Z,99990.09
2023-09-20T23:26:01.810Z,99982.38
2023-09-20T23:28:29.136Z,99991.47
2023-09-20T23:31:00.036Z,99987.63
2023-09-20T23:33:28.692Z,99978.09
2023-09-20T23:36:00.647Z,99978.37
2023-09-20T23:38:29.997Z,99977.66
2023-09-20T23:41:02.246Z,99976.19
2023-09-20T23:43:31.782Z,99971.97
2023-09-20T23:45:59.829Z,99972.94
2023-09-20T23:48:27.799Z,99965.94
2023-09-20T23:51:02.640Z,99974.50
2023-09-20T23:53:30.548Z,99972.94
2023-09-20T23:55:58.664Z,99963.41
2023-09-20T23:58:28.251Z,99976.38
